Time;durP1;ratioP1;P1;durP2;ratioP2;P2;SDS_P1;SDS_P2;PMS_P1;PMS_P2;Temp;Humidity;BMP_temperature;BMP_pressure;BME280_temperature;BME280_humidity;BME280_pressure;Samples;Min_cycle;Max_cycle;Signal;HPM_P1;HPM_P2
2022/04/29 00:02:15;;;;;;;7.38;3.40;;;6.80;99.90;;;;;;5032023;28;20053;-76
2022/04/29 00:04:42;;;;;;;5.72;3.35;;;6.80;99.90;;;;;;5083231;28;20394;-75
2022/04/29 00:07:09;;;;;;;7.30;3.30;;;6.80;99.90;;;;;;5034002;28;20397;-77
2022/04/29 00:09:36;;;;;;;6.25;3.03;;;6.70;99.90;;;;;;5049509;28;20067;-76
2022/04/29 00:12:04;;;;;;;6.25;3.20;;;6.70;99.90;;;;;;5050914;28;20045;-76
2022/04/29 00:14:30;;;;;;;5.60;3.17;;;6.70;99.90;;;;;;5050552;28;20080;-77
2022/04/29 00:16:57;;;;;;;5.13;3.17;;;6.70;99.90;;;;;;5026055;28;20060;-76
2022/04/29 00:19:23;;;;;;;5.20;3.08;;;6.60;99.90;;;;;;5063911;28;20517;-76
2022/04/29 00:21:49;;;;;;;6.90;3.13;;;6.70;99.90;;;;;;5067054;28;20047;-77
2022/04/29 00:24:15;;;;;;;8.13;3.08;;;6.60;99.90;;;;;;5050360;28;20405;-76
2022/04/29 00:26:41;;;;;;;5.65;3.08;;;6.50;99.90;;;;;;5065723;28;20147;-75
2022/04/29 00:29:07;;;;;;;8.15;2.60;;;6.60;99.90;;;;;;5030145;28;20052;-76
2022/04/29 00:31:34;;;;;;;6.70;3.55;;;6.60;99.90;;;;;;5049870;28;20071;-76
2022/04/29 00:34:00;;;;;;;4.43;2.95;;;6.60;99.90;;;;;;5033661;28;20055;-76
2022/04/29 00:36:26;;;;;;;4.15;2.83;;;6.60;99.90;;;;;;5039921;28;20053;-76
2022/04/29 00:38:52;;;;;;;6.68;3.17;;;6.60;99.90;;;;;;5048798;28;20467;-75
2022/04/29 00:41:19;;;;;;;7.10;3.30;;;6.60;99.90;;;;;;5049002;28;20041;-75
2022/04/29 00:43:45;;;;;;;4.25;3.00;;;6.60;99.90;;;;;;5027206;28;20177;-75
2022/04/29 00:46:11;;;;;;;6.43;3.28;;;6.60;99.90;;;;;;5033305;28;20167;-73
2022/04/29 00:48:37;;;;;;;5.93;2.97;;;6.60;99.90;;;;;;5031846;28;20053;-76
2022/04/29 00:51:03;;;;;;;6.00;2.80;;;6.60;99.90;;;;;;5049873;28;20402;-75
2022/04/29 00:53:30;;;;;;;6.32;2.90;;;6.60;99.90;;;;;;5047397;28;20077;-76
2022/04/29 00:55:57;;;;;;;5.53;3.38;;;6.60;99.90;;;;;;5049396;28;20127;-76
2022/04/29 00:58:38;;;;;;;6.93;3.05;;;6.60;99.90;;;;;;5065071;28;20052;-76
2022/04/29 01:01:04;;;;;;;5.07;2.97;;;6.60;99.90;;;;;;5049151;28;20052;-76
2022/04/29 01:03:32;;;;;;;5.70;3.10;;;6.60;99.90;;;;;;5049297;28;20049;-76
2022/04/29 01:05:58;;;;;;;4.95;3.20;;;7.10;99.90;;;;;;5065913;28;20490;-77
2022/04/29 01:08:23;;;;;;;8.25;3.30;;;6.60;99.90;;;;;;5047474;28;20056;-76
2022/04/29 01:10:49;;;;;;;8.60;3.20;;;6.60;99.90;;;;;;5030791;28;20049;-76
2022/04/29 01:13:16;;;;;;;7.45;3.40;;;6.60;99.90;;;;;;5048484;28;20074;-76
2022/04/29 01:15:44;;;;;;;6.20;3.00;;;6.60;99.90;;;;;;5048245;28;20084;-76
2022/04/29 01:18:10;;;;;;;6.90;3.33;;;6.60;99.90;;;;;;5064094;28;20131;-76
2022/04/29 01:20:37;;;;;;;6.20;3.03;;;6.60;99.90;;;;;;5064099;28;20566;-76
2022/04/29 01:23:07;;;;;;;5.07;3.08;;;6.60;99.90;;;;;;5032995;28;20540;-76
2022/04/29 01:25:33;;;;;;;4.18;2.60;;;6.60;99.90;;;;;;5065481;28;20046;-76
2022/04/29 01:27:59;;;;;;;6.80;3.17;;;6.60;99.90;;;;;;5026515;28;20505;-76
2022/04/29 01:30:25;;;;;;;5.03;3.10;;;6.60;99.90;;;;;;5048342;28;20132;-77
2022/04/29 01:32:55;;;;;;;5.80;3.10;;;6.60;99.90;;;;;;5049069;28;20048;-76
2022/04/29 01:35:21;;;;;;;3.90;2.85;;;6.60;99.90;;;;;;5025272;28;20048;-76
2022/04/29 01:37:48;;;;;;;5.22;2.85;;;6.70;99.90;;;;;;5048266;28;20053;-77
2022/04/29 01:40:14;;;;;;;8.43;2.90;;;6.60;99.90;;;;;;5082203;28;20049;-76
2022/04/29 01:42:41;;;;;;;7.32;2.85;;;6.60;99.90;;;;;;5064309;28;20094;-76
2022/04/29 01:45:08;;;;;;;5.13;2.95;;;6.60;99.90;;;;;;5042115;28;20108;-76
2022/04/29 01:47:35;;;;;;;5.97;2.95;;;6.60;99.90;;;;;;5041742;28;20103;-76
2022/04/29 01:50:01;;;;;;;5.47;3.08;;;6.60;99.90;;;;;;5030816;28;20040;-74
2022/04/29 01:52:27;;;;;;;6.28;2.83;;;6.60;99.90;;;;;;5007737;28;20049;-75
2022/04/29 01:54:53;;;;;;;6.07;3.00;;;6.60;99.90;;;;;;5032056;28;20156;-74
2022/04/29 01:57:19;;;;;;;7.15;3.45;;;6.60;99.90;;;;;;5049654;28;20044;-75
2022/04/29 01:59:44;;;;;;;5.70;3.28;;;6.60;99.90;;;;;;5047168;28;20049;-75
2022/04/29 02:02:11;;;;;;;6.93;3.35;;;8.10;99.90;;;;;;5046983;28;20079;-74
2022/04/29 02:04:37;;;;;;;5.32;3.15;;;6.60;99.90;;;;;;5048598;28;20106;-74
2022/04/29 02:07:04;;;;;;;5.72;3.30;;;6.50;99.90;;;;;;5032425;28;20075;-74
2022/04/29 02:09:30;;;;;;;5.28;3.17;;;6.50;99.90;;;;;;5031027;28;20056;-75
2022/04/29 02:12:05;;;;;;;7.10;3.58;;;6.60;99.90;;;;;;5025841;28;20509;-74
2022/04/29 02:14:37;;;;;;;4.80;2.88;;;6.50;99.90;;;;;;5049293;28;20116;-75
2022/04/29 02:17:04;;;;;;;7.13;3.70;;;6.50;99.90;;;;;;5048265;28;20071;-75
2022/04/29 02:19:30;;;;;;;6.13;3.20;;;6.50;99.90;;;;;;5062232;28;20056;-74
2022/04/29 02:21:57;;;;;;;6.05;3.15;;;6.50;99.90;;;;;;5065327;28;20084;-75
2022/04/29 02:24:23;;;;;;;7.57;3.30;;;6.60;99.90;;;;;;5040625;28;20053;-74
2022/04/29 02:26:49;;;;;;;6.65;3.60;;;6.50;99.90;;;;;;5047748;28;20043;-74
2022/04/29 02:29:15;;;;;;;4.93;3.22;;;6.60;99.90;;;;;;5047243;28;20049;-75
2022/04/29 02:31:40;;;;;;;10.77;3.50;;;6.60;99.90;;;;;;5047684;28;20048;-75
2022/04/29 02:34:06;;;;;;;6.65;3.75;;;6.60;99.90;;;;;;5047490;28;20053;-75
2022/04/29 02:36:32;;;;;;;7.05;3.35;;;6.40;99.90;;;;;;5030364;28;20047;-74
2022/04/29 02:38:59;;;;;;;5.95;3.53;;;7.50;99.90;;;;;;5030666;28;20468;-74
2022/04/29 02:41:25;;;;;;;4.93;3.30;;;7.50;99.90;;;;;;5047728;28;20064;-74
2022/04/29 02:43:51;;;;;;;6.13;3.50;;;6.60;99.90;;;;;;5047495;28;20041;-75
2022/04/29 02:46:17;;;;;;;7.10;3.30;;;6.60;99.90;;;;;;5064379;28;20076;-74
2022/04/29 02:48:43;;;;;;;4.90;3.28;;;6.60;99.90;;;;;;5030242;28;20494;-75
2022/04/29 02:51:09;;;;;;;7.70;3.65;;;6.60;99.90;;;;;;5038142;28;20049;-74
2022/04/29 02:53:36;;;;;;;6.80;3.22;;;6.60;99.90;;;;;;5030770;28;20052;-75
2022/04/29 02:56:02;;;;;;;6.35;3.08;;;6.60;99.90;;;;;;5024572;28;20430;-74
2022/04/29 02:58:28;;;;;;;7.53;3.50;;;6.60;99.90;;;;;;5047162;28;20051;-74
2022/04/29 03:00:53;;;;;;;5.68;3.83;;;6.60;99.90;;;;;;5045917;28;20403;-74
2022/04/29 03:03:19;;;;;;;5.57;3.58;;;6.60;99.90;;;;;;5047641;28;20045;-73
2022/04/29 03:05:45;;;;;;;4.88;3.65;;;6.50;99.90;;;;;;5030856;28;20052;-74
2022/04/29 03:08:10;;;;;;;6.18;3.30;;;6.50;99.90;;;;;;5063155;28;20049;-74
2022/04/29 03:10:36;;;;;;;6.38;3.60;;;6.70;99.90;;;;;;5046818;28;20056;-74
2022/04/29 03:13:02;;;;;;;4.80;3.10;;;6.50;99.90;;;;;;5030781;28;20099;-74
2022/04/29 03:15:28;;;;;;;6.65;3.58;;;6.50;99.90;;;;;;5047837;28;20049;-73
2022/04/29 03:20:41;;;;;;;6.80;3.70;;;6.50;99.90;;;;;;5079916;28;20049;-74
2022/04/29 03:23:07;;;;;;;6.88;3.63;;;6.60;99.90;;;;;;5047933;28;20446;-74
2022/04/29 03:25:34;;;;;;;5.00;3.83;;;6.50;99.90;;;;;;5046930;28;20136;-74
2022/04/29 03:28:00;;;;;;;4.57;3.65;;;6.50;99.90;;;;;;5040096;28;20045;-74
2022/04/29 03:30:26;;;;;;;6.10;3.65;;;6.50;99.90;;;;;;5045282;28;20067;-72
2022/04/29 03:32:57;;;;;;;5.97;4.05;;;6.60;99.90;;;;;;5080679;28;20060;-74
2022/04/29 03:35:23;;;;;;;4.20;3.30;;;6.50;99.90;;;;;;5081677;28;20383;-74
2022/04/29 03:37:52;;;;;;;5.43;3.50;;;6.60;99.90;;;;;;5030133;28;20059;-75
2022/04/29 03:40:21;;;;;;;5.30;3.38;;;6.50;99.90;;;;;;5080496;28;20114;-71
2022/04/29 03:42:53;;;;;;;4.45;3.53;;;6.50;99.90;;;;;;5045794;28;20056;-75
2022/04/29 03:45:21;;;;;;;4.60;3.38;;;6.60;99.90;;;;;;5063315;28;20673;-75
2022/04/29 03:47:47;;;;;;;7.22;3.88;;;6.60;99.90;;;;;;5022773;28;20053;-75
2022/04/29 03:50:13;;;;;;;4.85;3.95;;;6.60;99.90;;;;;;5044881;28;20052;-76
2022/04/29 03:52:56;;;;;;;5.20;3.75;;;6.60;99.90;;;;;;5046607;28;20397;-75
2022/04/29 03:55:24;;;;;;;6.25;3.92;;;6.70;99.90;;;;;;5047140;28;20830;-75
2022/04/29 03:57:53;;;;;;;5.63;3.53;;;6.70;99.90;;;;;;5039017;28;20084;-76
2022/04/29 04:00:20;;;;;;;4.28;3.30;;;6.70;99.90;;;;;;5047142;28;20678;-75
2022/04/29 04:02:46;;;;;;;7.10;3.38;;;6.90;99.90;;;;;;5007167;28;20057;-76
2022/04/29 04:05:12;;;;;;;4.75;3.63;;;6.80;99.90;;;;;;5031960;28;20839;-75
2022/04/29 04:07:38;;;;;;;6.30;3.53;;;6.80;99.90;;;;;;5030119;28;20087;-75
2022/04/29 04:10:05;;;;;;;3.72;2.95;;;6.80;99.90;;;;;;5043023;28;20041;-75
2022/04/29 04:12:43;;;;;;;6.05;3.28;;;6.90;99.90;;;;;;5023457;28;20064;-75
2022/04/29 04:15:10;;;;;;;7.93;3.40;;;6.90;99.90;;;;;;5028265;28;20049;-75
2022/04/29 04:17:37;;;;;;;4.28;2.95;;;6.90;99.90;;;;;;5027760;28;20053;-75
2022/04/29 04:20:05;;;;;;;4.38;3.35;;;6.90;99.90;;;;;;5061691;28;20049;-75
2022/04/29 04:22:32;;;;;;;4.53;3.15;;;6.90;99.90;;;;;;5005284;28;20545;-75
2022/04/29 04:24:59;;;;;;;4.63;3.45;;;6.90;99.90;;;;;;5079167;28;20049;-76
2022/04/29 04:27:25;;;;;;;4.03;3.40;;;6.90;99.90;;;;;;5046658;28;20049;-75
2022/04/29 04:29:51;;;;;;;4.15;3.00;;;7.00;99.90;;;;;;5055238;28;20040;-75
2022/04/29 04:32:16;;;;;;;4.82;3.10;;;7.00;99.90;;;;;;5026520;28;20083;-76
2022/04/29 04:34:51;;;;;;;6.25;3.20;;;7.00;99.90;;;;;;5044310;28;20148;-74
2022/04/29 04:37:17;;;;;;;7.05;3.53;;;7.00;99.90;;;;;;5061155;28;20060;-76
2022/04/29 04:39:44;;;;;;;5.50;3.30;;;7.00;99.90;;;;;;5043383;28;20187;-76
2022/04/29 04:42:10;;;;;;;4.40;3.60;;;7.10;99.90;;;;;;5048103;28;20494;-77
2022/04/29 04:44:36;;;;;;;5.35;4.03;;;7.10;99.90;;;;;;5049610;28;20048;-77
2022/04/29 04:47:03;;;;;;;5.45;3.70;;;7.10;99.90;;;;;;5024717;28;20529;-75
2022/04/29 04:49:28;;;;;;;5.22;3.70;;;7.10;99.90;;;;;;5048936;28;20076;-76
2022/04/29 04:51:54;;;;;;;6.45;3.92;;;7.10;99.90;;;;;;5031353;28;20057;-76
2022/04/29 04:54:20;;;;;;;7.63;3.88;;;7.10;99.90;;;;;;5033469;28;20045;-75
2022/04/29 04:56:45;;;;;;;5.85;4.35;;;7.10;99.90;;;;;;5046015;28;20049;-75
2022/04/29 04:59:11;;;;;;;6.93;4.38;;;7.20;99.90;;;;;;5047392;28;20627;-74
2022/04/29 05:01:37;;;;;;;7.30;4.53;;;7.20;99.90;;;;;;5048715;28;20053;-75
2022/04/29 05:04:02;;;;;;;9.88;5.03;;;7.20;99.90;;;;;;5032283;28;20080;-76
2022/04/29 05:06:28;;;;;;;6.15;5.07;;;7.10;99.90;;;;;;5047867;28;20052;-75
2022/04/29 05:08:54;;;;;;;7.13;4.60;;;7.20;99.90;;;;;;5041459;28;20484;-75
2022/04/29 05:11:19;;;;;;;5.55;4.20;;;7.10;99.90;;;;;;5063883;28;20048;-75
2022/04/29 05:13:45;;;;;;;6.50;5.00;;;7.10;99.90;;;;;;5065376;28;20122;-75
2022/04/29 05:16:11;;;;;;;8.90;4.50;;;7.70;99.90;;;;;;5032660;28;20048;-75
2022/04/29 05:18:37;;;;;;;5.40;4.78;;;7.20;99.90;;;;;;5046977;28;20053;-75
2022/04/29 05:21:03;;;;;;;9.85;4.57;;;7.20;99.90;;;;;;5031740;28;20129;-75
2022/04/29 05:23:29;;;;;;;5.75;4.00;;;8.00;99.90;;;;;;5046834;28;20098;-78
2022/04/29 05:25:55;;;;;;;8.80;4.22;;;7.30;99.90;;;;;;5063937;28;20037;-75
2022/04/29 05:28:21;;;;;;;6.07;4.20;;;7.30;99.90;;;;;;5048058;28;20410;-75
2022/04/29 05:30:48;;;;;;;7.10;4.85;;;7.30;99.90;;;;;;5048184;28;20056;-75
2022/04/29 05:33:14;;;;;;;7.45;4.38;;;7.60;99.90;;;;;;5025421;28;20060;-75
2022/04/29 05:35:40;;;;;;;6.78;3.90;;;7.40;99.90;;;;;;5047865;28;20052;-74
2022/04/29 05:38:07;;;;;;;6.22;4.00;;;7.40;99.90;;;;;;5047001;28;20055;-76
2022/04/29 05:43:20;;;;;;;8.45;4.20;;;7.50;99.90;;;;;;5033837;28;20068;-76
2022/04/29 05:45:46;;;;;;;6.13;3.70;;;7.60;99.90;;;;;;5048430;28;20063;-76
2022/04/29 05:48:11;;;;;;;4.10;3.45;;;7.60;99.90;;;;;;5046933;28;20131;-75
2022/04/29 05:50:37;;;;;;;5.25;3.53;;;7.70;99.90;;;;;;5065871;28;20541;-73
2022/04/29 05:53:03;;;;;;;4.63;3.55;;;7.80;99.90;;;;;;5062412;28;20103;-76
2022/04/29 05:55:29;;;;;;;5.82;3.20;;;7.90;99.90;;;;;;5030505;28;20098;-76
2022/04/29 05:57:54;;;;;;;5.82;3.00;;;8.00;99.90;;;;;;5061923;28;20544;-77
2022/04/29 06:00:20;;;;;;;5.18;3.13;;;8.10;99.90;;;;;;5065494;28;20048;-76
2022/04/29 06:02:49;;;;;;;4.57;3.08;;;8.10;99.90;;;;;;5065153;28;20449;-76
2022/04/29 06:05:14;;;;;;;4.72;2.85;;;8.30;99.90;;;;;;5047703;28;20049;-76
2022/04/29 06:07:41;;;;;;;6.45;3.10;;;8.40;99.90;;;;;;5047192;28;20095;-76
2022/04/29 06:10:08;;;;;;;5.35;3.00;;;8.50;99.90;;;;;;5030837;28;20037;-78
2022/04/29 06:12:40;;;;;;;7.78;3.35;;;8.60;99.90;;;;;;5068241;28;20084;-75
2022/04/29 06:15:07;;;;;;;4.05;2.80;;;8.70;99.90;;;;;;5079182;28;20051;-76
2022/04/29 06:17:33;;;;;;;5.68;2.80;;;8.80;99.90;;;;;;5030515;28;20061;-76
2022/04/29 06:19:59;;;;;;;4.53;2.13;;;8.90;99.90;;;;;;5079949;28;20142;-76
2022/04/29 06:22:24;;;;;;;4.10;2.50;;;8.90;99.90;;;;;;5048269;28;20569;-78
2022/04/29 06:24:53;;;;;;;5.40;2.25;;;9.00;99.90;;;;;;5045654;28;20123;-76
2022/04/29 06:27:19;;;;;;;4.90;2.05;;;9.00;99.90;;;;;;5022933;28;20533;-76
2022/04/29 06:29:45;;;;;;;5.20;2.10;;;9.10;99.90;;;;;;5078501;28;20086;-75
2022/04/29 06:32:11;;;;;;;4.65;2.08;;;9.10;99.90;;;;;;5059734;28;20048;-75
2022/04/29 06:34:37;;;;;;;4.35;2.15;;;9.20;99.90;;;;;;5045687;28;20124;-75
2022/04/29 06:37:03;;;;;;;5.72;1.90;;;9.20;99.90;;;;;;5007529;28;20071;-79
2022/04/29 06:39:29;;;;;;;5.45;2.10;;;9.30;99.90;;;;;;5029512;28;20124;-76
2022/04/29 06:41:55;;;;;;;3.13;2.00;;;9.40;99.90;;;;;;5080196;28;20558;-75
2022/04/29 06:44:21;;;;;;;4.05;2.00;;;9.60;99.90;;;;;;5047087;28;20051;-75
2022/04/29 06:46:50;;;;;;;4.70;2.25;;;9.70;99.90;;;;;;5045943;28;20052;-75
2022/04/29 06:49:16;;;;;;;4.07;2.40;;;9.80;99.90;;;;;;5046231;28;20120;-75
2022/04/29 06:51:42;;;;;;;3.78;1.92;;;10.00;99.90;;;;;;5048725;28;20167;-76
2022/04/29 06:54:08;;;;;;;3.72;2.28;;;10.20;99.90;;;;;;5025320;28;20400;-77
2022/04/29 06:56:33;;;;;;;3.05;2.35;;;10.40;99.90;;;;;;5046781;28;20041;-76
2022/04/29 06:58:59;;;;;;;4.70;1.70;;;10.50;99.90;;;;;;5056630;28;20110;-74
2022/04/29 07:01:25;;;;;;;2.83;1.52;;;10.70;99.90;;;;;;5046100;28;20112;-74
2022/04/29 07:03:51;;;;;;;3.28;1.92;;;10.80;99.90;;;;;;5044625;28;20049;-75
2022/04/29 07:06:17;;;;;;;4.93;1.90;;;11.00;99.90;;;;;;5064831;28;20052;-76
2022/04/29 07:08:43;;;;;;;3.42;1.80;;;11.10;99.90;;;;;;5045875;28;20080;-76
2022/04/29 07:11:09;;;;;;;7.60;1.80;;;11.20;99.90;;;;;;5064057;28;20098;-75
2022/04/29 07:13:35;;;;;;;6.47;1.92;;;11.30;99.90;;;;;;5039310;28;20045;-75
2022/04/29 07:16:00;;;;;;;3.53;1.50;;;11.50;99.90;;;;;;5062510;28;20040;-75
2022/04/29 07:18:26;;;;;;;3.17;1.63;;;11.60;99.90;;;;;;5006525;28;20114;-77
2022/04/29 07:20:52;;;;;;;5.43;1.60;;;11.70;99.90;;;;;;5030007;28;20072;-75
2022/04/29 07:23:17;;;;;;;3.50;1.50;;;11.80;99.90;;;;;;5062620;28;20056;-75
2022/04/29 07:25:43;;;;;;;3.97;1.50;;;11.80;99.90;;;;;;5046160;28;20041;-75
2022/04/29 07:28:09;;;;;;;5.45;1.73;;;11.90;99.90;;;;;;5046114;28;20059;-76
2022/04/29 07:30:35;;;;;;;5.28;1.40;;;12.00;99.90;;;;;;5005896;28;20048;-75
2022/04/29 07:33:01;;;;;;;4.13;1.73;;;12.00;99.90;;;;;;5029803;28;20080;-75
2022/04/29 07:43:39;;;;;;;3.90;1.55;;;12.20;99.90;;;;;;5045735;28;20049;-75
2022/04/29 07:46:05;;;;;;;4.32;1.50;;;12.20;99.90;;;;;;5045367;28;20051;-79
2022/04/29 07:48:31;;;;;;;5.13;1.67;;;12.10;99.90;;;;;;5039260;28;20136;-75
2022/04/29 07:50:57;;;;;;;3.67;1.65;;;12.00;99.90;;;;;;5029236;28;20053;-75
2022/04/29 07:53:23;;;;;;;4.18;1.60;;;12.00;99.90;;;;;;5046688;28;20474;-76
2022/04/29 07:55:49;;;;;;;2.60;1.40;;;12.00;99.90;;;;;;5060968;28;20120;-75
2022/04/29 07:58:14;;;;;;;2.30;1.60;;;12.00;99.90;;;;;;5025455;28;20444;-75
2022/04/29 08:00:40;;;;;;;4.97;1.52;;;11.90;99.90;;;;;;5027667;28;20619;-75
2022/04/29 08:03:07;;;;;;;3.53;1.60;;;11.90;99.90;;;;;;5025497;28;20079;-75
2022/04/29 08:05:33;;;;;;;3.83;1.45;;;11.80;99.90;;;;;;5024143;28;20056;-76
2022/04/29 08:08:02;;;;;;;5.25;1.88;;;11.70;99.90;;;;;;5060390;28;20029;-78
2022/04/29 08:10:29;;;;;;;2.65;1.48;;;11.70;99.90;;;;;;5041714;28;20053;-78
2022/04/29 08:12:57;;;;;;;5.85;1.55;;;11.60;99.90;;;;;;5060578;28;20149;-79
2022/04/29 08:15:28;;;;;;;4.65;1.65;;;11.60;99.90;;;;;;5047307;28;20445;-77
2022/04/29 08:17:55;;;;;;;8.43;1.77;;;11.50;99.90;;;;;;5016528;28;20049;-76
2022/04/29 08:20:21;;;;;;;3.22;1.50;;;11.50;99.90;;;;;;5010109;28;20055;-74
2022/04/29 08:22:47;;;;;;;3.20;1.33;;;11.40;99.90;;;;;;5042647;28;20041;-76
2022/04/29 08:25:15;;;;;;;2.95;1.40;;;11.40;99.90;;;;;;5049956;28;20680;-75
2022/04/29 08:27:41;;;;;;;3.65;1.77;;;11.40;99.90;;;;;;5049394;28;20053;-75
2022/04/29 08:30:07;;;;;;;3.80;1.65;;;11.40;99.90;;;;;;5046870;28;20045;-76
2022/04/29 08:32:41;;;;;;;4.53;1.95;;;11.40;99.90;;;;;;5029305;28;20041;-76
2022/04/29 08:35:09;;;;;;;6.45;2.38;;;11.30;99.90;;;;;;5042734;28;20063;-75
2022/04/29 08:37:36;;;;;;;4.30;1.95;;;11.30;99.90;;;;;;5042453;28;20060;-76
2022/04/29 08:40:04;;;;;;;5.45;1.77;;;11.40;99.90;;;;;;5058239;28;20048;-76
2022/04/29 08:42:36;;;;;;;4.43;1.80;;;11.40;99.90;;;;;;5043901;28;20120;-76
2022/04/29 08:45:02;;;;;;;3.20;1.83;;;11.30;99.90;;;;;;5061936;28;20402;-75
2022/04/29 08:47:29;;;;;;;2.97;1.90;;;11.30;99.90;;;;;;5043885;28;20067;-77
2022/04/29 08:49:55;;;;;;;3.55;2.00;;;11.30;99.90;;;;;;5076959;28;20163;-77
2022/04/29 08:52:21;;;;;;;3.83;2.15;;;11.30;99.90;;;;;;5045941;28;20106;-77
2022/04/29 09:00:24;;;;;;;3.03;2.03;;;11.20;99.90;;;;;;5042991;28;20048;-76
2022/04/29 09:02:50;;;;;;;4.13;2.53;;;11.10;99.90;;;;;;5025089;28;20445;-77
2022/04/29 09:05:16;;;;;;;7.05;2.33;;;11.10;99.90;;;;;;5043449;28;20029;-77
2022/04/29 09:08:02;;;;;;;7.63;2.20;;;11.10;99.90;;;;;;5047390;28;20045;-77
2022/04/29 09:10:36;;;;;;;2.92;1.67;;;11.10;99.90;;;;;;5023305;28;20053;-77
2022/04/29 09:13:17;;;;;;;5.78;2.10;;;11.00;99.90;;;;;;5028952;28;20056;-76
2022/04/29 09:15:58;;;;;;;6.20;2.20;;;11.00;99.90;;;;;;5042184;28;20048;-77
2022/04/29 09:18:43;;;;;;;5.95;2.38;;;11.00;99.90;;;;;;5080768;28;20160;-76
2022/04/29 09:21:10;;;;;;;5.18;2.22;;;11.00;99.90;;;;;;5047392;28;20464;-76
2022/04/29 09:23:41;;;;;;;5.97;2.17;;;11.00;99.90;;;;;;5043848;28;20086;-75
2022/04/29 09:26:18;;;;;;;6.35;2.20;;;11.10;99.90;;;;;;5081534;28;20053;-76
2022/04/29 09:28:46;;;;;;;4.10;1.98;;;11.10;99.90;;;;;;5025743;28;20136;-76
2022/04/29 09:31:11;;;;;;;4.68;1.90;;;11.10;99.90;;;;;;5027275;28;20048;-72
2022/04/29 09:33:37;;;;;;;3.72;1.80;;;11.00;99.90;;;;;;5049956;28;20123;-74
2022/04/29 09:36:03;;;;;;;4.45;2.25;;;11.10;99.90;;;;;;5031577;28;20076;-74
2022/04/29 09:41:22;;;;;;;3.65;2.00;;;11.20;99.90;;;;;;5080131;28;20065;-74
2022/04/29 09:43:48;;;;;;;6.68;2.03;;;11.30;99.90;;;;;;5048870;28;20147;-74
2022/04/29 09:46:23;;;;;;;5.40;1.98;;;11.30;99.90;;;;;;5062214;28;20188;-74
2022/04/29 09:49:00;;;;;;;3.63;2.00;;;11.30;99.90;;;;;;5042654;28;20098;-74
2022/04/29 09:51:44;;;;;;;6.22;2.20;;;11.40;99.90;;;;;;5048788;28;20417;-77
2022/04/29 09:54:18;;;;;;;2.65;1.60;;;11.50;99.90;;;;;;5030852;28;20072;-77
2022/04/29 09:57:09;;;;;;;3.05;1.90;;;11.60;99.90;;;;;;5025569;28;20580;-77
2022/04/29 09:59:44;;;;;;;2.92;1.63;;;11.60;99.90;;;;;;5022689;28;20498;-77
2022/04/29 10:02:13;;;;;;;3.10;1.85;;;11.70;99.90;;;;;;5080875;28;20052;-76
2022/04/29 10:04:44;;;;;;;2.88;1.80;;;11.70;99.90;;;;;;5082726;28;20052;-76
2022/04/29 10:07:13;;;;;;;3.95;1.70;;;11.80;99.90;;;;;;5052126;28;20163;-73
2022/04/29 10:09:40;;;;;;;4.32;2.05;;;11.90;99.90;;;;;;5053001;28;20074;-76
2022/04/29 10:12:19;;;;;;;3.50;1.70;;;12.00;99.90;;;;;;5090334;28;20044;-76
2022/04/29 10:14:47;;;;;;;2.63;1.70;;;12.00;99.90;;;;;;5050280;28;20060;-77
2022/04/29 10:23:03;;;;;;;5.32;1.92;;;12.00;99.90;;;;;;5049230;28;20049;-76
2022/04/29 10:25:29;;;;;;;3.65;1.85;;;12.00;99.90;;;;;;5047840;28;20560;-77
2022/04/29 10:27:55;;;;;;;4.47;1.52;;;12.00;99.90;;;;;;5031071;28;20397;-76
2022/04/29 10:30:40;;;;;;;3.45;1.70;;;11.90;99.90;;;;;;5047961;28;20033;-76
2022/04/29 10:33:10;;;;;;;3.25;1.88;;;11.90;99.90;;;;;;5040391;28;20045;-76
2022/04/29 10:35:53;;;;;;;2.60;1.50;;;11.90;99.90;;;;;;5024432;28;20045;-76
2022/04/29 10:38:34;;;;;;;3.30;1.98;;;11.90;99.90;;;;;;5063602;28;20375;-76
2022/04/29 10:41:06;;;;;;;3.35;1.90;;;12.00;99.90;;;;;;5048249;28;20103;-77
2022/04/29 10:43:35;;;;;;;4.32;2.00;;;12.00;99.90;;;;;;5064193;28;20063;-77
2022/04/29 10:46:04;;;;;;;4.55;1.80;;;12.10;99.90;;;;;;5047348;28;20045;-77
2022/04/29 10:48:35;;;;;;;3.50;1.90;;;12.10;99.90;;;;;;5030498;28;20048;-76
2022/04/29 10:51:21;;;;;;;2.90;1.58;;;12.10;99.90;;;;;;5047959;28;20044;-76
2022/04/29 10:53:49;;;;;;;3.58;2.15;;;12.10;99.90;;;;;;5040465;28;20506;-76
2022/04/29 10:56:30;;;;;;;5.90;1.70;;;12.10;99.90;;;;;;5024160;28;20049;-76
2022/04/29 10:59:12;;;;;;;6.70;1.90;;;12.20;99.90;;;;;;5079859;28;20478;-76
2022/04/29 11:01:40;;;;;;;5.40;1.80;;;12.20;99.90;;;;;;5081583;28;20056;-76
2022/04/29 11:04:15;;;;;;;3.58;1.75;;;12.30;99.90;;;;;;5046173;28;20057;-76
2022/04/29 11:06:44;;;;;;;3.80;1.80;;;12.30;99.90;;;;;;5040071;28;20048;-76
2022/04/29 11:09:48;;;;;;;4.18;2.30;;;12.20;99.90;;;;;;5029783;28;20044;-75
2022/04/29 11:12:30;;;;;;;3.05;1.85;;;12.10;99.90;;;;;;5079921;28;20591;-76
2022/04/29 11:15:06;;;;;;;4.45;1.67;;;12.00;99.90;;;;;;5039318;28;20053;-75
2022/04/29 11:17:36;;;;;;;3.00;1.70;;;11.90;99.90;;;;;;5062851;28;20052;-76
2022/04/29 11:20:13;;;;;;;3.45;1.88;;;11.90;99.90;;;;;;5044682;28;20037;-76
2022/04/29 11:25:24;;;;;;;5.45;1.50;;;11.70;99.90;;;;;;5057940;28;20048;-75
2022/04/29 11:27:53;;;;;;;3.95;1.92;;;11.70;99.90;;;;;;5047546;28;20053;-75
2022/04/29 11:30:19;;;;;;;3.17;1.60;;;11.70;99.90;;;;;;5030778;28;20099;-75
2022/04/29 11:32:45;;;;;;;5.57;2.72;;;11.80;99.90;;;;;;5080777;28;20093;-75
2022/04/29 11:35:10;;;;;;;6.07;1.63;;;11.90;99.90;;;;;;5045929;28;20053;-76
2022/04/29 11:37:36;;;;;;;4.47;1.80;;;11.90;99.90;;;;;;5022405;28;20162;-75
2022/04/29 11:40:07;;;;;;;4.03;1.70;;;11.90;99.90;;;;;;5028393;28;20045;-75
2022/04/29 11:42:33;;;;;;;3.00;1.70;;;12.00;99.90;;;;;;5046924;28;20049;-75
2022/04/29 11:45:06;;;;;;;4.40;1.80;;;12.00;99.90;;;;;;5030858;28;20102;-73
2022/04/29 11:47:33;;;;;;;4.20;1.90;;;12.00;99.90;;;;;;5047501;28;20052;-77
2022/04/29 11:50:01;;;;;;;3.78;2.10;;;12.00;99.90;;;;;;5060780;28;20103;-75
2022/04/29 11:52:30;;;;;;;4.30;2.15;;;12.00;99.90;;;;;;5047178;28;20118;-75
2022/04/29 11:54:57;;;;;;;7.03;2.05;;;12.10;99.90;;;;;;5029296;28;20115;-75
2022/04/29 11:57:25;;;;;;;3.53;1.70;;;12.00;99.90;;;;;;5046460;28;20045;-75
2022/04/29 11:59:51;;;;;;;3.65;2.00;;;11.90;99.90;;;;;;5029822;28;20128;-75
2022/04/29 12:02:20;;;;;;;5.50;1.98;;;12.00;99.90;;;;;;5039882;28;20045;-75
2022/04/29 12:05:01;;;;;;;4.75;2.42;;;12.00;99.90;;;;;;5039870;28;20120;-75
2022/04/29 12:07:29;;;;;;;5.03;1.92;;;12.10;99.90;;;;;;5046948;28;20123;-75
2022/04/29 12:09:55;;;;;;;5.03;2.10;;;12.30;99.90;;;;;;5022582;28;20052;-75
2022/04/29 12:12:24;;;;;;;3.50;1.70;;;12.40;99.90;;;;;;5029340;28;20128;-75
2022/04/29 12:14:50;;;;;;;6.03;2.20;;;12.70;99.90;;;;;;5030270;28;20076;-75
2022/04/29 12:17:17;;;;;;;3.85;1.90;;;13.10;99.90;;;;;;5046342;28;20048;-76
2022/04/29 12:19:42;;;;;;;4.05;1.75;;;13.40;99.90;;;;;;5045016;28;20405;-73
2022/04/29 12:22:09;;;;;;;4.32;1.70;;;13.80;99.90;;;;;;5045297;28;20040;-76
2022/04/29 12:24:45;;;;;;;6.55;1.70;;;14.10;99.90;;;;;;5063152;28;20132;-75
2022/04/29 12:27:11;;;;;;;4.47;2.05;;;14.30;99.90;;;;;;5079965;28;20063;-75
2022/04/29 12:34:48;;;;;;;3.03;1.70;;;14.70;99.90;;;;;;5042818;28;20127;-75
2022/04/29 12:35:15;;;;;;;4.40;1.90;;;14.90;99.90;;;;;;5079216;28;20063;-75
2022/04/29 12:37:51;;;;;;;2.47;1.63;;;14.90;99.90;;;;;;5046440;28;20049;-75
2022/04/29 12:40:29;;;;;;;4.68;1.63;;;14.80;99.90;;;;;;5079801;28;20064;-75
2022/04/29 12:43:12;;;;;;;3.30;1.50;;;14.70;99.90;;;;;;5046797;28;20076;-75
2022/04/29 12:45:38;;;;;;;3.55;1.73;;;14.70;99.90;;;;;;5046572;28;20057;-75
2022/04/29 12:48:06;;;;;;;4.88;1.75;;;14.70;99.90;;;;;;5045162;28;20056;-75
2022/04/29 12:50:40;;;;;;;4.55;1.80;;;14.50;99.90;;;;;;5063572;28;20394;-75
2022/04/29 12:53:10;;;;;;;4.13;1.95;;;14.40;99.90;;;;;;5062593;28;20053;-75
2022/04/29 12:55:46;;;;;;;6.85;1.83;;;14.30;99.90;;;;;;5046507;28;20049;-76
2022/04/29 12:58:25;;;;;;;3.38;1.75;;;14.20;99.90;;;;;;5044749;28;20053;-75
2022/04/29 13:00:57;;;;;;;2.50;1.42;;;14.00;99.90;;;;;;5023236;28;20052;-75
2022/04/29 13:03:26;;;;;;;4.07;1.80;;;13.90;99.90;;;;;;5032483;28;20052;-75
2022/04/29 13:05:52;;;;;;;3.10;1.70;;;14.00;99.90;;;;;;5050113;28;20045;-75
2022/04/29 13:08:18;;;;;;;4.78;2.25;;;14.20;99.90;;;;;;5048860;28;20052;-75
2022/04/29 13:10:52;;;;;;;2.70;1.80;;;14.20;99.90;;;;;;5033408;28;20045;-75
2022/04/29 13:13:19;;;;;;;3.92;2.20;;;14.50;99.90;;;;;;5051428;28;20135;-75
2022/04/29 13:15:46;;;;;;;4.78;2.10;;;14.60;99.90;;;;;;5039119;28;20107;-76
2022/04/29 13:18:12;;;;;;;3.55;1.85;;;14.60;99.90;;;;;;5089207;28;20499;-76
2022/04/29 13:20:38;;;;;;;2.63;1.90;;;14.70;99.90;;;;;;5052195;28;20387;-75
2022/04/29 13:23:05;;;;;;;5.40;2.10;;;14.80;99.90;;;;;;5068577;28;20056;-75
2022/04/29 13:25:34;;;;;;;4.57;1.92;;;15.00;99.90;;;;;;5051028;28;20095;-75
2022/04/29 13:28:00;;;;;;;3.63;1.80;;;15.00;99.90;;;;;;5042546;28;20080;-75
2022/04/29 13:30:26;;;;;;;3.47;2.13;;;14.90;99.90;;;;;;5032888;28;20104;-76
2022/04/29 13:32:52;;;;;;;4.60;2.30;;;14.70;99.90;;;;;;5033183;28;20080;-75